PASN/SNP METAR and TAF weather

Enter ICAO airport designator
Station Type Date Time Source
PASN METAR 2022/05/26 04:53 UTC NOAA

PASN 260453Z AUTO VRB03KT 10SM OVC005 01/M01 A3003 RMK AO2 SLP171 T00111011 TSNO $


Station Type Date Time Source
PASN Decoded METAR 2022/05/26 04:53 UTC NOAA

ST PAUL ISLAND AIRPORT, AK, United States (PASN) 57-10N 170-13W 9M
May 26, 2022 - 12:53 AM EDT / 2022.05.26 0453 UTC
Wind: Variable at 3 MPH (3 KT):0
Visibility: 10 mile(s):0
Sky conditions: overcast
Temperature: 34.0 F (1.1 C)
Dew Point: 30.0 F (-1.1 C)
Relative Humidity: 85%
Pressure (altimeter): 30.03 in. Hg (1016 hPa)
ob: PASN 260453Z AUTO VRB03KT 10SM OVC005 01/M01 A3003 RMK AO2 SLP171 T00111011 TSNO
cycle: 5

Station Type Date Time Source
PASN TAF 2022/05/26 06:20 UTC NOAA

TAF PASN 260520Z 2606/2706 VRB04KT P6SM OVC005
FM260900 06006KT 2SM BR OVC003
FM261200 VRB05KT 1/2SM FG OVC002
FM261800 10007KT P6SM OVC004

Example: see airport list